Terminal Aerodrome Forecast
Issued by NWS Albany, NY

Home | Current Version | Previous Version | Text Only | Print | Product List | Glossary On
Versions: 1 2 3 4 5 6 7 8 9 10 11 12 13 14 15 16 17 18 19
000
FTUS41 KALY 220541
TAFGFL
TAF
KGFL 220541Z 2206/2306 00000KT P6SM BKN120
     FM221200 24006KT P6SM SCT120
     FM221500 30010G16KT P6SM SCT060
     FM221700 30012G22KT P6SM BKN060
     FM230100 32006KT P6SM SKC=

USA.gov is the U.S. government's official web portal to all federal, state and local government web resources and services.